Alum Ridge, Virginia
Current Conditions -  °F | °C
As of 3:55 PM on Thursday 18 Dec 2014 (Local Time) from KBCB Reporting Station
Overcast Overcast  
Wind Chill: 33°   Ceiling: 8000
Heat Index: 38°   Visibility: 10mi
Dew Point: 21°   Wind: 7mph
Humidity: 51%   Direction: 300°WNW
Pressure: 30.07"   Gusts: NA
Location:  36.9207°N, 80.3192°W
Report Text: KBCB 182055Z AUTO 30006KT 10SM OVC080 04/M06 A3007 RMK AO2 T00351059
Loading
Personal Weather Stations






























Interactive Weather Map New forecast layout! Learn more

10-Day Weather Forecast

Advertisements
Track Severe Weather on mobile